Hovedside
METAR-TAF:

METAR-TAF

Lufthavner :

Ørsta/Volda lufthamn. Hovden

Ørsta-Volda, Norge

breddegrad: 62-11N, lengdegrad: 006-04E, høyde over havet: 7 m

Gjeldene værobservasjon

Denne rapporten ble laget for 42 minutter siden, klokken 14:20 UTC
Vind 5 kt fra skiftende retning
Temperatur 2°C
Luftfuktighet 64%
Trykk 1011 hPa
Sikt 10 km eller mer
Få skyer i en høyde av 4000 ft

METAR: ENOV 211420Z VRB05KT 9999 FEW040 02/M04 Q1011 RMK WIND 2175FT 14018KT

Tid: 16:02 (15:02 UTC)


TAF: fraværende

Værobservasjoner og værvarsel for over 4000 flyplasser (METAR- og TAF-rapporter).

Tilgjengelige stasjoner er representert av de røde og gule prikkene på kartet.

Hold musepekeren over prikken for å se navnet på stasjonen.

Klikk så for å se værobservasjoner og -varsler.

For å forandre kartet kan du klikke på den grønne knappen med svart kryss for å zoome inn, på den grønne knappen med strek for å zoome ut, eller på de grønne pilene for å se tilstøtende kart.


METAR-TAF: